LFSI

Saint-Dizier-Robinson (BA 113) Air Base

Airport
ICAO code
LFSI
Summary
ICAO Region
EUR
ICAO Territory
Location

, Champagne-Ardenne

Serving
St.-dizier
Elevation
458 ft
Coordinates
48° 38' 10" N , 4° 53' 58" E
Metar
LFSI 181230Z AUTO 27005KT 220V010 9999 FEW040 SCT220 BKN230 20/11 Q1011

Runways

Designator Length Width Surface Rops
11/29 2412 45 ASP No/No

Airport map

Aerial View

SKYbrary Partners:

Safety knowledge contributed by: